createdAt,value
2023-05-01T00:02:27.273Z,11.73
2023-05-01T00:04:54.342Z,11.63
2023-05-01T00:07:21.679Z,11.55
2023-05-01T00:09:48.657Z,11.62
2023-05-01T00:12:15.774Z,11.67
2023-05-01T00:14:42.697Z,11.65
2023-05-01T00:17:10.054Z,11.58
2023-05-01T00:19:37.084Z,11.43
2023-05-01T00:22:04.159Z,11.38
2023-05-01T00:24:31.041Z,11.42
2023-05-01T00:26:58.206Z,11.48
2023-05-01T00:29:25.295Z,11.50
2023-05-01T00:31:52.469Z,11.47
2023-05-01T00:34:20.049Z,11.47
2023-05-01T00:36:48.106Z,11.47
2023-05-01T00:39:16.564Z,11.49
2023-05-01T00:41:43.943Z,11.44
2023-05-01T00:44:10.933Z,11.39
2023-05-01T00:46:38.228Z,11.25
2023-05-01T00:49:05.235Z,11.18
2023-05-01T00:51:33.110Z,11.22
2023-05-01T00:54:00.424Z,11.24
2023-05-01T00:56:28.058Z,11.22
2023-05-01T00:58:56.823Z,11.20
2023-05-01T01:01:24.485Z,11.20
2023-05-01T01:03:54.803Z,11.22
2023-05-01T01:06:39.754Z,11.13
2023-05-01T01:09:19.100Z,11.05
2023-05-01T01:11:58.097Z,10.99
2023-05-01T01:14:33.125Z,11.00
2023-05-01T01:17:48.699Z,10.96
2023-05-01T01:20:38.033Z,10.88
2023-05-01T01:23:23.909Z,10.87
2023-05-01T01:26:13.197Z,10.67
2023-05-01T01:28:52.513Z,10.45
2023-05-01T01:31:36.369Z,10.49
2023-05-01T01:34:14.958Z,10.64
2023-05-01T01:37:10.987Z,10.58
2023-05-01T01:39:45.278Z,10.65
2023-05-01T01:42:18.698Z,10.56
2023-05-01T01:44:54.889Z,10.43
2023-05-01T01:47:28.439Z,10.21
2023-05-01T01:49:57.825Z,10.13
2023-05-01T01:52:27.840Z,10.14
2023-05-01T01:54:58.701Z,10.13
2023-05-01T01:57:27.359Z,10.09
2023-05-01T01:59:55.595Z,10.10
2023-05-01T02:02:23.887Z,9.98
2023-05-01T02:04:52.568Z,9.85
2023-05-01T02:07:21.865Z,9.81
2023-05-01T02:09:51.713Z,9.72
2023-05-01T02:12:19.877Z,9.59
2023-05-01T02:14:49.091Z,9.72
2023-05-01T02:17:17.801Z,9.39
2023-05-01T02:19:46.647Z,9.35
2023-05-01T02:22:15.109Z,9.18
2023-05-01T02:24:43.880Z,9.18
2023-05-01T02:27:17.378Z,9.33
2023-05-01T02:29:45.051Z,9.27
2023-05-01T02:32:12.473Z,9.15
2023-05-01T02:34:39.626Z,9.09
2023-05-01T02:37:08.194Z,9.20
2023-05-01T02:39:35.609Z,9.23
2023-05-01T02:42:04.552Z,9.25
2023-05-01T02:44:39.967Z,9.18
2023-05-01T02:47:09.284Z,9.20
2023-05-01T02:49:38.434Z,9.35
2023-05-01T02:52:05.658Z,9.40
2023-05-01T02:54:33.134Z,9.36
2023-05-01T02:57:03.602Z,9.40
2023-05-01T02:59:30.566Z,9.38
2023-05-01T03:01:58.183Z,9.26
2023-05-01T03:04:25.555Z,9.23
2023-05-01T03:06:52.595Z,9.20
2023-05-01T03:09:20.532Z,8.95
2023-05-01T03:11:47.944Z,8.77
2023-05-01T03:14:14.911Z,8.64
2023-05-01T03:16:41.992Z,8.70
2023-05-01T03:19:09.112Z,8.67
2023-05-01T03:21:37.129Z,8.56
2023-05-01T03:24:04.248Z,8.53
2023-05-01T03:26:33.033Z,8.49
2023-05-01T03:29:00.050Z,8.34
2023-05-01T03:31:27.699Z,8.28
2023-05-01T03:33:55.935Z,8.27
2023-05-01T03:36:23.250Z,8.24
2023-05-01T03:38:51.377Z,8.28
2023-05-01T03:41:47.211Z,8.23
2023-05-01T03:44:24.001Z,8.27
2023-05-01T03:46:51.258Z,8.17
2023-05-01T03:49:24.340Z,8.37
2023-05-01T03:51:52.439Z,8.51
2023-05-01T03:54:19.408Z,8.49
2023-05-01T03:57:02.460Z,8.66
2023-05-01T03:59:30.561Z,8.71
2023-05-01T04:01:58.502Z,8.62
2023-05-01T04:04:29.695Z,8.73
2023-05-01T04:06:58.988Z,8.58
2023-05-01T04:09:26.214Z,8.66
2023-05-01T04:11:53.475Z,8.76
2023-05-01T04:14:20.434Z,8.92
2023-05-01T04:16:47.892Z,9.10
2023-05-01T04:19:14.753Z,9.24
2023-05-01T04:21:45.030Z,9.35
2023-05-01T04:24:12.247Z,9.54
2023-05-01T04:26:39.378Z,9.73
2023-05-01T04:29:07.424Z,9.70
2023-05-01T04:31:53.239Z,9.97
2023-05-01T04:34:20.606Z,10.22
2023-05-01T04:36:47.616Z,10.19
2023-05-01T04:39:15.164Z,10.27
2023-05-01T04:41:42.336Z,10.36
2023-05-01T04:44:09.339Z,10.28
2023-05-01T04:46:36.262Z,10.28
2023-05-01T04:49:04.201Z,10.18
2023-05-01T04:51:31.154Z,10.32
2023-05-01T04:53:59.305Z,10.34
2023-05-01T04:56:27.776Z,10.26
2023-05-01T04:59:00.370Z,10.54
2023-05-01T05:01:28.767Z,10.55
2023-05-01T05:03:56.840Z,10.49
2023-05-01T05:06:24.219Z,10.77
2023-05-01T05:08:52.251Z,10.76
2023-05-01T05:11:20.198Z,10.71
2023-05-01T05:13:57.431Z,10.95
2023-05-01T05:16:25.115Z,11.18
2023-05-01T05:18:52.598Z,11.32
2023-05-01T05:21:19.571Z,11.27
2023-05-01T05:23:51.158Z,11.32
2023-05-01T05:26:18.629Z,11.39
2023-05-01T05:28:45.844Z,11.50
2023-05-01T05:31:13.041Z,11.42
2023-05-01T05:33:40.056Z,11.49
2023-05-01T05:36:07.528Z,11.51
2023-05-01T05:38:40.622Z,11.58
2023-05-01T05:41:09.849Z,11.39
2023-05-01T05:43:37.351Z,11.78
2023-05-01T05:46:05.515Z,12.04
2023-05-01T05:48:34.430Z,12.28
2023-05-01T05:51:01.626Z,12.48
2023-05-01T05:53:31.517Z,12.52
2023-05-01T05:55:58.828Z,12.66
2023-05-01T05:58:26.000Z,12.63
2023-05-01T06:00:54.758Z,12.82
2023-05-01T06:03:22.329Z,12.80
2023-05-01T06:05:51.928Z,12.80
2023-05-01T06:08:19.135Z,13.03
2023-05-01T06:10:47.553Z,13.01
2023-05-01T06:13:15.036Z,13.15
2023-05-01T06:15:46.150Z,13.16
2023-05-01T06:18:13.603Z,12.93
2023-05-01T06:20:41.053Z,13.14
2023-05-01T06:23:10.094Z,13.26
2023-05-01T06:25:51.736Z,13.36
2023-05-01T06:28:18.949Z,13.60
2023-05-01T06:30:46.479Z,13.65
2023-05-01T06:33:17.343Z,13.82
2023-05-01T06:35:46.680Z,13.84
2023-05-01T06:38:13.855Z,13.91
2023-05-01T06:40:41.705Z,13.71
2023-05-01T06:43:08.851Z,13.55
2023-05-01T06:45:35.919Z,13.63
2023-05-01T06:48:03.015Z,13.78
2023-05-01T06:50:30.029Z,14.15
2023-05-01T06:53:01.058Z,14.01
2023-05-01T06:55:32.089Z,13.96
2023-05-01T06:58:02.628Z,14.24
2023-05-01T07:00:33.711Z,14.50
2023-05-01T07:03:03.194Z,14.68
2023-05-01T07:05:30.536Z,15.06
2023-05-01T07:08:01.225Z,15.11
2023-05-01T07:10:30.282Z,15.00
2023-05-01T07:12:57.282Z,15.16
2023-05-01T07:15:25.038Z,15.38
2023-05-01T07:17:52.435Z,15.34
2023-05-01T07:20:19.592Z,15.26
2023-05-01T07:22:46.743Z,15.40
2023-05-01T07:25:14.324Z,15.49
2023-05-01T07:27:41.693Z,15.68
2023-05-01T07:30:09.797Z,15.81
2023-05-01T07:32:36.740Z,15.76
2023-05-01T07:35:04.499Z,15.81
2023-05-01T07:37:31.560Z,15.95
2023-05-01T07:39:58.758Z,16.04
2023-05-01T07:42:29.360Z,15.89
2023-05-01T07:44:56.538Z,15.96
2023-05-01T07:47:24.401Z,15.98
2023-05-01T07:49:51.490Z,16.00
2023-05-01T07:52:18.730Z,16.00
2023-05-01T07:54:51.187Z,15.98
2023-05-01T07:57:18.723Z,16.22
2023-05-01T07:59:45.905Z,16.44
2023-05-01T08:02:13.925Z,16.54
2023-05-01T08:04:41.797Z,16.84
2023-05-01T08:07:09.012Z,17.15
2023-05-01T08:09:36.032Z,17.18
2023-05-01T08:12:04.130Z,17.13
2023-05-01T08:14:31.897Z,17.07
2023-05-01T08:16:59.017Z,17.25
2023-05-01T08:19:30.198Z,17.20
2023-05-01T08:21:57.970Z,17.12
2023-05-01T08:24:26.205Z,17.06
2023-05-01T08:26:53.422Z,17.29
2023-05-01T08:29:20.300Z,17.39
2023-05-01T08:31:47.920Z,17.37
2023-05-01T08:34:15.214Z,17.54
2023-05-01T08:36:42.411Z,17.59
2023-05-01T08:39:09.326Z,17.64
2023-05-01T08:41:38.190Z,17.81
2023-05-01T08:44:09.249Z,17.92
2023-05-01T08:46:49.087Z,18.04
2023-05-01T08:49:17.751Z,17.96
2023-05-01T08:51:47.562Z,17.98
2023-05-01T08:54:16.646Z,18.03
2023-05-01T08:56:47.208Z,18.36
2023-05-01T08:59:14.989Z,18.34
2023-05-01T09:01:43.609Z,18.35
2023-05-01T09:04:12.137Z,18.34
2023-05-01T09:06:39.340Z,18.59
2023-05-01T09:09:06.634Z,18.63
2023-05-01T09:11:33.596Z,18.74
2023-05-01T09:14:01.738Z,18.72
2023-05-01T09:16:29.604Z,18.66
2023-05-01T09:18:58.050Z,18.71
2023-05-01T09:21:27.329Z,19.01
2023-05-01T09:23:54.382Z,19.22
2023-05-01T09:26:22.035Z,18.81
2023-05-01T09:28:49.341Z,19.00
2023-05-01T09:31:23.077Z,18.94
2023-05-01T09:33:58.563Z,18.90
2023-05-01T09:36:27.250Z,18.86
2023-05-01T09:38:54.663Z,18.69
2023-05-01T09:41:22.597Z,18.77
2023-05-01T09:43:51.813Z,18.83
2023-05-01T09:46:19.221Z,19.09
2023-05-01T09:48:56.559Z,19.20
2023-05-01T09:51:29.101Z,19.20
2023-05-01T09:54:01.931Z,19.34
2023-05-01T09:56:31.474Z,19.44
2023-05-01T09:59:15.488Z,19.57
2023-05-01T10:01:45.164Z,19.69
2023-05-01T10:04:13.248Z,19.27
2023-05-01T10:06:41.441Z,19.50
2023-05-01T10:09:16.663Z,19.53
2023-05-01T10:11:55.791Z,19.54
2023-05-01T10:14:28.386Z,19.60
2023-05-01T10:16:57.977Z,19.80
2023-05-01T10:19:25.739Z,19.81
2023-05-01T10:21:53.526Z,19.65
2023-05-01T10:24:21.008Z,19.70
2023-05-01T10:26:49.232Z,20.04
2023-05-01T10:29:17.495Z,20.08
2023-05-01T10:31:45.001Z,19.91
2023-05-01T10:34:18.206Z,20.18
2023-05-01T10:36:50.685Z,20.42
2023-05-01T10:39:32.455Z,20.49
2023-05-01T10:42:06.362Z,20.40
2023-05-01T10:44:35.101Z,20.37
2023-05-01T10:47:24.961Z,20.22
2023-05-01T10:50:07.216Z,20.40
2023-05-01T10:53:15.719Z,20.44
2023-05-01T10:55:45.165Z,20.10
2023-05-01T10:58:13.154Z,19.96
2023-05-01T11:00:41.651Z,19.65
2023-05-01T11:03:24.514Z,19.54
2023-05-01T11:06:00.939Z,19.53
2023-05-01T11:08:37.561Z,19.26
2023-05-01T11:11:19.886Z,19.28
2023-05-01T11:14:03.068Z,19.24
2023-05-01T11:16:39.524Z,19.50
2023-05-01T11:19:08.763Z,19.32
2023-05-01T11:21:38.835Z,19.27
2023-05-01T11:24:09.637Z,19.25
2023-05-01T11:26:42.215Z,19.59
2023-05-01T11:29:11.458Z,19.81
2023-05-01T11:31:39.588Z,20.10
2023-05-01T11:34:07.252Z,20.19
2023-05-01T11:36:51.237Z,20.50
2023-05-01T11:39:18.894Z,20.32
2023-05-01T11:41:46.600Z,20.34
2023-05-01T11:44:18.259Z,20.61
2023-05-01T11:46:45.410Z,20.92
2023-05-01T11:49:12.408Z,20.96
2023-05-01T11:51:40.847Z,21.07
2023-05-01T11:54:15.192Z,20.61
2023-05-01T11:56:43.220Z,20.45
2023-05-01T11:59:11.617Z,20.52
2023-05-01T12:01:41.310Z,20.44
2023-05-01T12:04:08.813Z,20.60
2023-05-01T12:06:45.150Z,20.65
2023-05-01T12:09:24.421Z,20.89
2023-05-01T12:11:53.478Z,21.15
2023-05-01T12:14:24.570Z,21.24
2023-05-01T12:16:51.845Z,21.25
2023-05-01T12:19:19.746Z,21.29
2023-05-01T12:21:48.047Z,20.93
2023-05-01T12:24:17.396Z,20.93
2023-05-01T12:26:46.573Z,20.90
2023-05-01T12:29:14.264Z,20.71
2023-05-01T12:31:48.813Z,20.34
2023-05-01T12:34:16.119Z,20.49
2023-05-01T12:36:53.945Z,20.73
2023-05-01T12:39:23.446Z,20.64
2023-05-01T12:41:51.346Z,20.10
2023-05-01T12:44:30.812Z,19.99
2023-05-01T12:47:02.803Z,20.22
2023-05-01T12:49:31.637Z,20.21
2023-05-01T12:52:03.626Z,20.14
2023-05-01T12:54:38.947Z,20.42
2023-05-01T12:57:14.888Z,20.64
2023-05-01T12:59:47.067Z,20.37
2023-05-01T13:02:17.169Z,20.60
2023-05-01T13:04:44.804Z,20.90
2023-05-01T13:07:14.986Z,20.95
2023-05-01T13:10:00.242Z,20.92
2023-05-01T13:12:29.615Z,20.99
2023-05-01T13:14:57.580Z,20.94
2023-05-01T13:17:31.719Z,21.00
2023-05-01T13:20:01.407Z,21.28
2023-05-01T13:22:38.221Z,21.16
2023-05-01T13:25:23.449Z,20.46
2023-05-01T13:27:52.398Z,20.66
2023-05-01T13:30:30.594Z,21.04
2023-05-01T13:32:58.298Z,20.80
2023-05-01T13:35:26.943Z,21.09
2023-05-01T13:37:54.829Z,20.65
2023-05-01T13:40:27.944Z,20.69
2023-05-01T13:42:55.124Z,20.78
2023-05-01T13:45:22.260Z,21.00
2023-05-01T13:47:50.819Z,21.13
2023-05-01T13:50:18.109Z,21.06
2023-05-01T13:52:45.987Z,20.87
2023-05-01T13:55:13.788Z,21.07
2023-05-01T13:57:42.392Z,20.99
2023-05-01T14:00:19.850Z,21.05
2023-05-01T14:02:49.411Z,20.52
2023-05-01T14:05:17.709Z,20.75
2023-05-01T14:07:55.320Z,20.60
2023-05-01T14:10:26.257Z,20.72
2023-05-01T14:13:01.258Z,20.65
2023-05-01T14:15:29.647Z,20.45
2023-05-01T14:17:58.978Z,20.74
2023-05-01T14:20:26.007Z,20.86
2023-05-01T14:22:53.643Z,20.57
2023-05-01T14:25:25.371Z,20.60
2023-05-01T14:27:54.987Z,20.20
2023-05-01T14:30:33.815Z,20.36
2023-05-01T14:33:02.989Z,20.50
2023-05-01T14:35:30.715Z,20.36
2023-05-01T14:38:11.715Z,20.40
2023-05-01T14:40:41.198Z,20.22
2023-05-01T14:43:09.143Z,20.10
2023-05-01T14:45:37.314Z,20.02
2023-05-01T14:48:04.515Z,19.77
2023-05-01T14:50:31.955Z,20.24
2023-05-01T14:53:01.184Z,20.33
2023-05-01T14:55:34.500Z,20.26
2023-05-01T14:58:02.052Z,20.27
2023-05-01T15:00:29.155Z,20.26
2023-05-01T15:02:58.633Z,20.17
2023-05-01T15:05:26.317Z,20.22
2023-05-01T15:08:02.469Z,19.84
2023-05-01T15:10:31.729Z,20.11
2023-05-01T15:12:58.865Z,20.21
2023-05-01T15:15:29.876Z,20.33
2023-05-01T15:17:57.286Z,20.58
2023-05-01T15:20:24.474Z,20.52
2023-05-01T15:22:51.553Z,20.20
2023-05-01T15:25:18.949Z,20.07
2023-05-01T15:27:48.585Z,20.33
2023-05-01T15:30:16.458Z,20.46
2023-05-01T15:32:43.767Z,20.74
2023-05-01T15:35:11.201Z,20.41
2023-05-01T15:37:38.094Z,20.18
2023-05-01T15:40:05.980Z,20.14
2023-05-01T15:42:33.186Z,20.65
2023-05-01T15:45:00.432Z,20.58
2023-05-01T15:47:28.356Z,20.73
2023-05-01T15:49:55.345Z,20.86
2023-05-01T15:52:22.404Z,20.93
2023-05-01T15:54:49.297Z,21.48
2023-05-01T15:57:19.237Z,21.66
2023-05-01T15:59:46.211Z,22.75
2023-05-01T16:02:13.322Z,23.68
2023-05-01T16:04:40.479Z,23.95
2023-05-01T16:07:08.974Z,24.89
2023-05-01T16:09:36.035Z,23.64
2023-05-01T16:12:04.777Z,23.96
2023-05-01T16:14:31.802Z,24.06
2023-05-01T16:16:58.832Z,24.53
2023-05-01T16:19:29.250Z,23.92
2023-05-01T16:21:56.392Z,24.68
2023-05-01T16:24:23.329Z,25.15
2023-05-01T16:26:50.481Z,23.33
2023-05-01T16:29:18.508Z,22.62
2023-05-01T16:31:48.644Z,22.60
2023-05-01T16:34:20.200Z,22.73
2023-05-01T16:36:47.536Z,22.22
2023-05-01T16:39:19.092Z,21.62
2023-05-01T16:41:48.925Z,21.60
2023-05-01T16:44:17.357Z,21.26
2023-05-01T16:46:54.560Z,21.11
2023-05-01T16:49:23.247Z,20.19
2023-05-01T16:51:50.368Z,19.52
2023-05-01T16:54:18.128Z,19.12
2023-05-01T16:56:45.167Z,18.86
2023-05-01T16:59:12.244Z,18.89
2023-05-01T17:01:39.304Z,18.61
2023-05-01T17:04:06.515Z,18.46
2023-05-01T17:06:33.670Z,18.35
2023-05-01T17:09:00.700Z,18.38
2023-05-01T17:11:28.259Z,18.16
2023-05-01T17:13:56.993Z,17.75
2023-05-01T17:16:23.952Z,17.62
2023-05-01T17:18:51.326Z,17.53
2023-05-01T17:21:18.748Z,17.45
2023-05-01T17:23:45.943Z,17.42
2023-05-01T17:26:15.903Z,17.40
2023-05-01T17:28:45.136Z,17.28
2023-05-01T17:31:12.150Z,17.07
2023-05-01T17:33:39.329Z,16.95
2023-05-01T17:36:06.323Z,16.99
2023-05-01T17:38:33.568Z,16.72
2023-05-01T17:41:00.435Z,16.72
2023-05-01T17:43:27.593Z,16.77
2023-05-01T17:45:54.664Z,16.58
2023-05-01T17:48:21.863Z,16.56
2023-05-01T17:50:49.118Z,16.30
2023-05-01T17:53:16.754Z,16.29
2023-05-01T17:55:44.251Z,16.31
2023-05-01T17:58:12.922Z,16.21
2023-05-01T18:00:40.600Z,16.23
2023-05-01T18:03:08.880Z,16.10
2023-05-01T18:05:36.175Z,16.11
2023-05-01T18:08:03.418Z,15.98
2023-05-01T18:10:31.419Z,15.98
2023-05-01T18:12:59.761Z,16.00
2023-05-01T18:15:27.681Z,15.87
2023-05-01T18:17:54.651Z,15.94
2023-05-01T18:20:21.780Z,15.93
2023-05-01T18:22:48.803Z,15.89
2023-05-01T18:25:17.169Z,15.88
2023-05-01T18:27:45.197Z,15.83
2023-05-01T18:30:12.609Z,15.73
2023-05-01T18:35:14.000Z,15.68
2023-05-01T18:37:42.484Z,15.63
2023-05-01T18:40:10.099Z,15.50
2023-05-01T18:42:37.108Z,15.47
2023-05-01T18:45:04.810Z,15.37
2023-05-01T18:47:32.708Z,15.31
2023-05-01T18:50:00.117Z,15.35
2023-05-01T18:52:29.193Z,15.17
2023-05-01T18:54:57.055Z,15.09
2023-05-01T18:57:24.231Z,15.12
2023-05-01T18:59:51.289Z,15.11
2023-05-01T19:02:18.708Z,15.12
2023-05-01T19:07:16.300Z,15.05
2023-05-01T19:09:43.569Z,15.00
2023-05-01T19:12:10.652Z,14.98
2023-05-01T19:14:37.851Z,14.96
2023-05-01T19:17:04.948Z,14.93
2023-05-01T19:19:32.156Z,14.81
2023-05-01T19:21:59.210Z,14.87
2023-05-01T19:24:26.454Z,14.68
2023-05-01T19:26:53.470Z,14.62
2023-05-01T19:29:20.577Z,14.50
2023-05-01T19:31:47.855Z,14.43
2023-05-01T19:34:15.031Z,14.42
2023-05-01T19:36:41.850Z,14.27
2023-05-01T19:39:08.936Z,14.28
2023-05-01T19:41:36.355Z,14.15
2023-05-01T19:44:03.549Z,14.13
2023-05-01T19:46:30.488Z,14.14
2023-05-01T19:48:57.556Z,13.96
2023-05-01T19:51:24.654Z,13.92
2023-05-01T19:53:51.528Z,13.87
2023-05-01T19:56:19.168Z,13.88
2023-05-01T19:58:46.522Z,13.78
2023-05-01T20:01:13.829Z,13.72
2023-05-01T20:03:41.159Z,13.75
2023-05-01T20:06:09.110Z,13.69
2023-05-01T20:08:35.934Z,13.41
2023-05-01T20:11:03.517Z,13.33
2023-05-01T20:13:30.451Z,13.61
2023-05-01T20:15:57.623Z,13.62
2023-05-01T20:18:24.824Z,13.62
2023-05-01T20:20:52.072Z,13.60
2023-05-01T20:23:20.313Z,13.53
2023-05-01T20:25:47.784Z,13.51
2023-05-01T20:28:15.070Z,13.45
2023-05-01T20:30:46.196Z,13.52
2023-05-01T20:33:13.953Z,13.37
2023-05-01T20:35:41.211Z,13.34
2023-05-01T20:38:08.252Z,13.27
2023-05-01T20:40:36.987Z,13.35
2023-05-01T20:43:04.157Z,13.27
2023-05-01T20:45:31.107Z,13.35
2023-05-01T20:47:58.987Z,13.29
2023-05-01T20:50:27.189Z,13.26
2023-05-01T20:52:55.292Z,13.15
2023-05-01T20:55:23.575Z,13.06
2023-05-01T20:57:50.920Z,13.10
2023-05-01T21:00:17.929Z,12.98
2023-05-01T21:02:45.216Z,12.92
2023-05-01T21:05:13.073Z,12.87
2023-05-01T21:07:40.784Z,12.87
2023-05-01T21:10:10.347Z,12.91
2023-05-01T21:12:38.679Z,12.92
2023-05-01T21:15:06.204Z,12.78
2023-05-01T21:17:35.664Z,12.78
2023-05-01T21:20:07.231Z,12.64
2023-05-01T21:22:34.535Z,12.73
2023-05-01T21:25:01.385Z,12.59
2023-05-01T21:27:31.073Z,12.51
2023-05-01T21:30:02.010Z,12.44
2023-05-01T21:32:33.882Z,12.32
2023-05-01T21:35:01.651Z,12.29
2023-05-01T21:37:33.365Z,12.31
2023-05-01T21:40:01.347Z,12.30
2023-05-01T21:42:35.662Z,12.21
2023-05-01T21:45:07.757Z,12.10
2023-05-01T21:47:39.731Z,12.05
2023-05-01T21:50:07.992Z,12.05
2023-05-01T21:52:35.513Z,12.14
2023-05-01T21:55:04.578Z,12.16
2023-05-01T21:57:32.079Z,12.16
2023-05-01T22:00:01.569Z,12.08
2023-05-01T22:02:38.582Z,11.99
2023-05-01T22:05:06.486Z,12.23
2023-05-01T22:07:34.100Z,12.26
2023-05-01T22:10:01.811Z,12.31
2023-05-01T22:12:31.167Z,12.26
2023-05-01T22:14:58.328Z,12.42
2023-05-01T22:17:26.294Z,12.34
2023-05-01T22:19:53.349Z,12.41
2023-05-01T22:22:20.522Z,12.38
2023-05-01T22:24:47.563Z,12.20
2023-05-01T22:27:16.082Z,12.29
2023-05-01T22:29:43.098Z,12.14
2023-05-01T22:32:09.987Z,12.13
2023-05-01T22:34:37.312Z,12.00
2023-05-01T22:37:04.161Z,12.04
2023-05-01T22:39:36.335Z,11.88
2023-05-01T22:42:04.017Z,11.89
2023-05-01T22:44:31.801Z,11.84
2023-05-01T22:47:01.767Z,11.78
2023-05-01T22:49:28.881Z,11.86
2023-05-01T22:51:56.222Z,11.85
2023-05-01T22:54:24.082Z,11.82
2023-05-01T22:56:51.743Z,11.85
2023-05-01T22:59:19.324Z,11.96
2023-05-01T23:01:46.909Z,12.03
2023-05-01T23:04:14.373Z,11.89
2023-05-01T23:06:41.713Z,11.89
2023-05-01T23:09:08.810Z,11.90
2023-05-01T23:11:35.817Z,11.93
2023-05-01T23:14:02.881Z,11.82
2023-05-01T23:16:36.606Z,11.99
2023-05-01T23:19:03.916Z,11.93
2023-05-01T23:21:31.236Z,11.84
2023-05-01T23:23:58.292Z,11.83
2023-05-01T23:26:28.731Z,11.75
2023-05-01T23:28:55.858Z,11.74
2023-05-01T23:31:27.791Z,11.66
2023-05-01T23:33:55.482Z,11.62
2023-05-01T23:36:22.546Z,11.69
2023-05-01T23:38:49.853Z,11.60
2023-05-01T23:41:16.826Z,11.68
2023-05-01T23:43:48.032Z,11.57
2023-05-01T23:46:16.172Z,11.55
2023-05-01T23:48:43.249Z,11.51
2023-05-01T23:51:10.689Z,11.54
2023-05-01T23:53:37.578Z,11.53
2023-05-01T23:56:04.759Z,11.53
2023-05-01T23:58:31.669Z,11.48
